createdAt,value
2016-10-25T00:00:27.558Z,15.82
2016-10-25T00:02:26.323Z,15.84
2016-10-25T00:03:25.948Z,15.86
2016-10-25T00:04:25.928Z,15.86
2016-10-25T00:05:40.634Z,15.92
2016-10-25T00:06:25.867Z,15.96
2016-10-25T00:07:25.838Z,15.89
2016-10-25T00:09:25.803Z,15.92
2016-10-25T00:10:25.749Z,15.89
2016-10-25T00:11:25.705Z,15.85
2016-10-25T00:12:26.035Z,15.84
2016-10-25T00:13:25.671Z,15.85
2016-10-25T00:14:25.714Z,15.84
2016-10-25T00:15:25.682Z,15.94
2016-10-25T00:16:25.574Z,15.85
2016-10-25T00:17:25.546Z,15.88
2016-10-25T00:18:25.934Z,15.89
2016-10-25T00:19:25.505Z,15.89
2016-10-25T00:20:25.462Z,15.89
2016-10-25T00:21:25.788Z,15.88
2016-10-25T00:22:25.409Z,15.99
2016-10-25T00:23:25.385Z,15.92
2016-10-25T00:24:25.339Z,15.89
2016-10-25T00:25:25.373Z,15.94
2016-10-25T00:26:25.293Z,15.94
2016-10-25T00:27:25.250Z,15.89
2016-10-25T00:28:25.350Z,15.81
2016-10-25T00:29:25.186Z,15.89
2016-10-25T00:30:25.207Z,15.96
2016-10-25T00:31:25.507Z,15.93
2016-10-25T00:32:39.837Z,15.94
2016-10-25T00:33:25.089Z,15.93
2016-10-25T00:34:25.050Z,15.94
2016-10-25T00:35:25.022Z,15.85
2016-10-25T00:36:25.011Z,15.93
2016-10-25T00:37:24.962Z,15.85
2016-10-25T00:38:25.170Z,15.92
2016-10-25T00:39:24.896Z,15.85
2016-10-25T00:40:24.885Z,15.81
2016-10-25T00:41:24.853Z,15.86
2016-10-25T00:42:25.180Z,15.82
2016-10-25T00:43:24.807Z,15.89
2016-10-25T00:44:24.769Z,15.86
2016-10-25T00:45:24.736Z,15.97
2016-10-25T00:46:25.080Z,15.88
2016-10-25T00:47:24.688Z,15.81
2016-10-25T00:48:24.639Z,15.93
2016-10-25T00:49:24.626Z,15.86
2016-10-25T00:50:24.608Z,15.93
2016-10-25T00:51:24.657Z,15.89
2016-10-25T00:52:39.558Z,15.92
2016-10-25T00:53:24.888Z,15.93
2016-10-25T00:54:24.900Z,15.85
2016-10-25T00:55:24.820Z,15.92
2016-10-25T00:56:24.855Z,15.96
2016-10-25T00:57:24.732Z,15.86
2016-10-25T00:58:24.357Z,15.81
2016-10-25T00:59:24.699Z,15.88
2016-10-25T01:00:24.709Z,15.89
2016-10-25T01:01:25.298Z,15.96
2016-10-25T01:02:24.634Z,15.92
2016-10-25T01:03:24.216Z,15.99
2016-10-25T01:04:24.187Z,15.94
2016-10-25T01:05:24.941Z,15.93
2016-10-25T01:06:24.138Z,15.92
2016-10-25T01:07:24.127Z,15.94
2016-10-25T01:08:24.808Z,15.94
2016-10-25T01:09:24.413Z,15.93
2016-10-25T01:10:24.374Z,15.93
2016-10-25T01:11:24.017Z,15.81
2016-10-25T01:12:23.956Z,15.88
2016-10-25T01:13:24.337Z,15.89
2016-10-25T01:14:23.913Z,15.96
2016-10-25T01:15:24.550Z,15.97
2016-10-25T01:16:23.887Z,16.01
2016-10-25T01:17:23.857Z,15.94
2016-10-25T01:18:23.827Z,15.94
2016-10-25T01:19:23.890Z,15.96
2016-10-25T01:20:23.797Z,16
2016-10-25T01:21:23.689Z,16
2016-10-25T01:22:23.694Z,15.96
2016-10-25T01:23:24.447Z,15.94
2016-10-25T01:24:23.612Z,15.99
2016-10-25T01:25:23.579Z,15.96
2016-10-25T01:26:23.926Z,16
2016-10-25T01:27:23.910Z,15.93
2016-10-25T01:28:38.539Z,15.97
2016-10-25T01:29:23.832Z,15.97
2016-10-25T01:30:23.442Z,16
2016-10-25T01:31:23.479Z,16
2016-10-25T01:32:24.716Z,16
2016-10-25T01:33:23.350Z,15.96
2016-10-25T01:34:23.344Z,16
2016-10-25T01:35:23.327Z,15.99
2016-10-25T01:36:23.368Z,15.97
2016-10-25T01:37:23.601Z,15.99
2016-10-25T01:38:23.227Z,16
2016-10-25T01:39:23.191Z,16
2016-10-25T01:40:23.596Z,16
2016-10-25T01:41:23.509Z,16.01
2016-10-25T01:42:23.102Z,16.03
2016-10-25T01:43:23.551Z,16.06
2016-10-25T01:44:23.048Z,16.04
2016-10-25T01:45:23.406Z,16.11
2016-10-25T01:46:23.004Z,16.06
2016-10-25T01:47:22.977Z,15.97
2016-10-25T01:48:22.969Z,16.06
2016-10-25T01:49:22.887Z,16.12
2016-10-25T01:50:22.889Z,16.04
2016-10-25T01:51:22.851Z,15.97
2016-10-25T01:52:22.829Z,16.03
2016-10-25T01:53:23.117Z,16
2016-10-25T01:54:37.480Z,16.01
2016-10-25T01:55:22.859Z,15.99
2016-10-25T01:56:37.421Z,15.96
2016-10-25T01:57:22.739Z,15.99
2016-10-25T01:58:22.648Z,15.99
2016-10-25T01:59:22.624Z,16.11
2016-10-25T02:00:22.869Z,16.15
2016-10-25T02:01:22.546Z,16
2016-10-25T02:02:22.522Z,16
2016-10-25T02:03:22.892Z,16.04
2016-10-25T02:04:23.555Z,16
2016-10-25T02:05:22.439Z,16.07
2016-10-25T02:06:22.400Z,16.06
2016-10-25T02:07:22.403Z,16.06
2016-10-25T02:08:22.492Z,16.11
2016-10-25T02:09:22.355Z,16
2016-10-25T02:10:22.299Z,15.99
2016-10-25T02:11:22.673Z,16.03
2016-10-25T02:12:22.587Z,16.04
2016-10-25T02:13:22.205Z,16.03
2016-10-25T02:14:22.249Z,16
2016-10-25T02:15:22.509Z,15.96
2016-10-25T02:17:22.120Z,15.99
2016-10-25T02:18:22.418Z,15.97
2016-10-25T02:19:22.028Z,15.97
2016-10-25T02:20:36.739Z,16.06
2016-10-25T02:21:22.057Z,15.99
2016-10-25T02:22:21.996Z,15.96
2016-10-25T02:23:21.940Z,15.99
2016-10-25T02:24:21.915Z,15.99
2016-10-25T02:25:21.865Z,16.04
2016-10-25T02:26:21.826Z,16.04
2016-10-25T02:27:36.546Z,16.04
2016-10-25T02:28:21.792Z,16.03
2016-10-25T02:29:21.763Z,16.03
2016-10-25T02:30:21.713Z,16.09
2016-10-25T02:31:21.690Z,16.09
2016-10-25T02:32:21.664Z,16.06
2016-10-25T02:33:21.627Z,16.12
2016-10-25T02:34:22.062Z,16.01
2016-10-25T02:35:21.574Z,16.06
2016-10-25T02:36:21.543Z,16.06
2016-10-25T02:37:21.522Z,16.11
2016-10-25T02:38:21.506Z,16.04
2016-10-25T02:39:21.477Z,16.06
2016-10-25T02:40:21.465Z,16.06
2016-10-25T02:41:21.403Z,16.06
2016-10-25T02:42:21.362Z,15.99
2016-10-25T02:43:21.340Z,16.14
2016-10-25T02:44:36.729Z,16.07
2016-10-25T02:45:21.635Z,16.07
2016-10-25T02:46:22.017Z,16.09
2016-10-25T02:47:21.956Z,16.09
2016-10-25T02:48:21.212Z,16
2016-10-25T02:49:21.552Z,16.06
2016-10-25T02:50:21.859Z,16.07
2016-10-25T02:52:21.595Z,16.12
2016-10-25T02:53:21.072Z,16.06
2016-10-25T02:54:21.024Z,16.07
2016-10-25T02:55:21.036Z,16.04
2016-10-25T02:56:21.012Z,16.15
2016-10-25T02:57:20.944Z,16.07
2016-10-25T02:58:20.970Z,16.09
2016-10-25T02:59:20.888Z,16.09
2016-10-25T03:00:20.902Z,16.07
2016-10-25T03:01:22.957Z,16.04
2016-10-25T03:02:20.803Z,16.07
2016-10-25T03:03:20.758Z,16.06
2016-10-25T03:04:20.746Z,16.06
2016-10-25T03:05:20.726Z,16.07
2016-10-25T03:06:20.684Z,16.14
2016-10-25T03:07:20.687Z,16.11
2016-10-25T03:08:35.359Z,16.09
2016-10-25T03:09:20.600Z,16.06
2016-10-25T03:10:21.018Z,16.07
2016-10-25T03:11:20.594Z,16.07
2016-10-25T03:12:20.664Z,16.11
2016-10-25T03:13:20.476Z,16.16
2016-10-25T03:14:20.476Z,16.09
2016-10-25T03:15:37.285Z,16.14
2016-10-25T03:16:20.598Z,16.14
2016-10-25T03:17:35.102Z,16.06
2016-10-25T03:18:20.346Z,16.11
2016-10-25T03:19:20.315Z,16.04
2016-10-25T03:20:20.317Z,16.09
2016-10-25T03:21:20.256Z,16.16
2016-10-25T03:22:21.683Z,16.16
2016-10-25T03:23:20.222Z,16.09
2016-10-25T03:24:20.186Z,16.11
2016-10-25T03:25:20.173Z,16.16
2016-10-25T03:26:20.477Z,16.11
2016-10-25T03:27:20.457Z,16.07
2016-10-25T03:28:20.392Z,16.2
2016-10-25T03:29:20.037Z,16.11
2016-10-25T03:30:20.052Z,16.14
2016-10-25T03:31:20.366Z,16.11
2016-10-25T03:32:20.369Z,16.12
2016-10-25T03:33:20.291Z,16.16
2016-10-25T03:34:20.253Z,16.14
2016-10-25T03:35:19.955Z,16.07
2016-10-25T03:36:19.822Z,16.07
2016-10-25T03:37:19.806Z,16.06
2016-10-25T03:38:20.115Z,16.14
2016-10-25T03:39:34.478Z,16.07
2016-10-25T03:40:20.428Z,16.07
2016-10-25T03:41:19.680Z,16.09
2016-10-25T03:42:20.050Z,16.04
2016-10-25T03:43:58.881Z,16.12
2016-10-25T03:44:31.065Z,16.22
2016-10-25T03:45:31.049Z,16.11
2016-10-25T03:46:30.981Z,16.11
2016-10-25T03:47:30.955Z,16.07
2016-10-25T03:48:45.705Z,16.04
2016-10-25T03:49:31.348Z,16.11
2016-10-25T03:50:46.123Z,16.15
2016-10-25T03:51:30.868Z,16.06
2016-10-25T03:52:31.229Z,16.16
2016-10-25T03:53:31.208Z,16.11
2016-10-25T03:54:31.185Z,16.16
2016-10-25T03:55:30.741Z,16.12
2016-10-25T03:56:30.722Z,16.18
2016-10-25T03:57:30.678Z,16.15
2016-10-25T03:58:30.768Z,16.16
2016-10-25T03:59:30.706Z,16.15
2016-10-25T04:00:30.744Z,16.16
2016-10-25T04:01:30.579Z,16.25
2016-10-25T04:02:31.115Z,16.15
2016-10-25T04:03:30.500Z,16.11
2016-10-25T04:04:32.102Z,16.18
2016-10-25T04:05:30.535Z,16.18
2016-10-25T04:06:30.750Z,16.15
2016-10-25T04:07:30.895Z,16.18
2016-10-25T04:08:30.660Z,16.16
2016-10-25T04:09:30.459Z,16.22
2016-10-25T04:10:30.328Z,16.15
2016-10-25T04:11:30.292Z,16.14
2016-10-25T04:12:30.291Z,16.25
2016-10-25T04:13:30.308Z,16.22
2016-10-25T04:14:30.537Z,16.23
2016-10-25T04:15:30.160Z,16.31
2016-10-25T04:16:30.276Z,16.25
2016-10-25T04:17:30.138Z,16.25
2016-10-25T04:18:30.096Z,16.23
2016-10-25T04:19:30.065Z,16.25
2016-10-25T04:20:30.046Z,16.26
2016-10-25T04:21:30.121Z,16.22
2016-10-25T04:23:30.192Z,16.22
2016-10-25T04:24:30.128Z,16.26
2016-10-25T04:25:29.910Z,16.22
2016-10-25T04:26:29.899Z,16.22
2016-10-25T04:27:30.283Z,16.25
2016-10-25T04:28:30.218Z,16.26
2016-10-25T04:29:30.111Z,16.22
2016-10-25T04:30:29.810Z,16.23
2016-10-25T04:31:30.070Z,16.18
2016-10-25T04:32:29.710Z,16.23
2016-10-25T04:33:59.116Z,16.2
2016-10-25T04:34:29.960Z,16.25
2016-10-25T04:35:29.644Z,16.27
2016-10-25T04:36:30.592Z,16.27
2016-10-25T04:37:29.572Z,16.23
2016-10-25T04:38:44.657Z,16.22
2016-10-25T04:39:29.477Z,16.25
2016-10-25T04:40:29.492Z,16.31
2016-10-25T04:41:29.429Z,16.25
2016-10-25T04:42:29.849Z,16.2
2016-10-25T04:43:29.368Z,16.23
2016-10-25T04:44:29.327Z,16.25
2016-10-25T04:45:30.342Z,16.2
2016-10-25T04:46:29.262Z,16.26
2016-10-25T04:47:29.250Z,16.01
2016-10-25T04:48:29.269Z,16.11
2016-10-25T04:49:29.799Z,16.15
2016-10-25T04:50:30.210Z,16.15
2016-10-25T04:51:29.173Z,16.26
2016-10-25T04:52:29.456Z,16.23
2016-10-25T04:53:29.317Z,16.22
2016-10-25T04:54:29.142Z,16.16
2016-10-25T04:55:29.027Z,16.06
2016-10-25T04:56:29.173Z,16.11
2016-10-25T04:57:28.962Z,16.2
2016-10-25T04:58:29.025Z,16.22
2016-10-25T04:59:28.927Z,16.18
2016-10-25T05:00:44.108Z,16.2
2016-10-25T05:01:29.247Z,16.07
2016-10-25T05:02:28.799Z,16.15
2016-10-25T05:03:28.814Z,16.11
2016-10-25T05:05:40.981Z,15.94
2016-10-25T05:06:38.215Z,15.89
2016-10-25T05:07:37.967Z,15.99
2016-10-25T05:08:38.460Z,16.01
2016-10-25T05:09:45.005Z,16.11
2016-10-25T05:10:38.453Z,16.03
2016-10-25T05:11:38.200Z,15.99
2016-10-25T05:12:37.787Z,16.09
2016-10-25T05:13:38.187Z,15.89
2016-10-25T05:14:37.671Z,16
2016-10-25T05:15:38.038Z,16.06
2016-10-25T05:16:37.746Z,16.06
2016-10-25T05:17:37.750Z,16.07
2016-10-25T05:18:37.931Z,16.11
2016-10-25T05:19:37.947Z,16.06
2016-10-25T05:20:37.887Z,16.04
2016-10-25T05:21:37.570Z,16.11
2016-10-25T05:22:37.473Z,15.81
2016-10-25T05:23:37.423Z,15.96
2016-10-25T05:24:52.125Z,15.97
2016-10-25T05:25:37.790Z,16
2016-10-25T05:26:37.452Z,16.06
2016-10-25T05:27:37.480Z,15.96
2016-10-25T05:28:37.316Z,16.04
2016-10-25T05:29:37.543Z,16.04
2016-10-25T05:30:37.235Z,16.09
2016-10-25T05:32:37.958Z,16.04
2016-10-25T05:33:37.212Z,16.15
2016-10-25T05:34:37.478Z,16.12
2016-10-25T05:35:37.292Z,16.12
2016-10-25T05:36:37.723Z,16.06
2016-10-25T05:37:37.195Z,16.18
2016-10-25T05:38:37.008Z,16
2016-10-25T05:39:37.358Z,16.07
2016-10-25T05:40:37.335Z,16.07
2016-10-25T05:41:37.478Z,16.07
2016-10-25T05:42:51.655Z,16.04
2016-10-25T05:43:37.651Z,16.07
2016-10-25T05:44:52.439Z,16.06
2016-10-25T05:45:36.803Z,16.15
2016-10-25T05:46:36.972Z,16.07
2016-10-25T05:47:36.777Z,16.15
2016-10-25T05:48:51.457Z,16.2
2016-10-25T05:49:36.793Z,16.11
2016-10-25T05:50:37.067Z,16.11
2016-10-25T05:51:36.746Z,16.09
2016-10-25T05:52:37.150Z,16.14
2016-10-25T05:53:36.615Z,16.2
2016-10-25T05:54:37.629Z,16.16
2016-10-25T05:55:36.587Z,16.07
2016-10-25T05:56:36.959Z,16.07
2016-10-25T05:57:51.517Z,16.12
2016-10-25T05:58:36.444Z,16.06
2016-10-25T05:59:37.387Z,16.03
2016-10-25T06:00:36.522Z,16.06
2016-10-25T06:01:37.724Z,16.01
2016-10-25T06:02:36.676Z,16.06
2016-10-25T06:03:36.807Z,16.11
2016-10-25T06:04:36.399Z,16.06
2016-10-25T06:05:36.601Z,16.14
2016-10-25T06:06:36.218Z,16.04
2016-10-25T06:07:36.204Z,16.01
2016-10-25T06:08:36.990Z,16
2016-10-25T06:09:36.162Z,16.06
2016-10-25T06:10:36.116Z,16.12
2016-10-25T06:11:36.529Z,16.06
2016-10-25T06:12:37.184Z,16.11
2016-10-25T06:13:37.184Z,16.12
2016-10-25T06:14:35.962Z,16.12
2016-10-25T06:15:37.111Z,16.11
2016-10-25T06:16:36.351Z,16.07
2016-10-25T06:17:35.946Z,16.06
2016-10-25T06:18:35.875Z,16.06
2016-10-25T06:19:35.852Z,16
2016-10-25T06:20:36.249Z,16.09
2016-10-25T06:21:36.128Z,16.06
2016-10-25T06:22:35.950Z,16.06
2016-10-25T06:23:50.732Z,16.03
2016-10-25T06:24:36.138Z,16
2016-10-25T06:25:35.678Z,15.86
2016-10-25T06:26:35.683Z,15.89
2016-10-25T06:27:35.617Z,15.94
2016-10-25T06:28:35.578Z,15.84
2016-10-25T06:29:35.562Z,15.84
2016-10-25T06:30:36.204Z,15.96
2016-10-25T06:31:35.784Z,15.99
2016-10-25T06:32:35.482Z,16
2016-10-25T06:33:35.461Z,16.11
2016-10-25T06:34:35.440Z,15.96
2016-10-25T06:35:37.430Z,15.93
2016-10-25T06:36:36.006Z,15.88
2016-10-25T06:37:35.412Z,15.86
2016-10-25T06:38:36.162Z,15.88
2016-10-25T06:39:35.651Z,15.94
2016-10-25T06:40:35.957Z,16
2016-10-25T06:41:35.245Z,15.99
2016-10-25T06:42:35.556Z,15.99
2016-10-25T06:43:50.427Z,15.99
2016-10-25T06:44:35.266Z,16.06
2016-10-25T06:45:35.281Z,15.86
2016-10-25T06:46:35.070Z,15.84
2016-10-25T06:47:35.143Z,15.93
2016-10-25T06:48:35.380Z,15.89
2016-10-25T06:49:35.002Z,15.79
2016-10-25T06:50:41.627Z,15.84
2016-10-25T06:51:34.920Z,15.88
2016-10-25T06:52:34.919Z,15.79
2016-10-25T06:53:35.032Z,15.97
2016-10-25T06:54:34.838Z,15.99
2016-10-25T06:55:34.857Z,15.96
2016-10-25T06:56:34.795Z,15.89
2016-10-25T06:57:34.828Z,15.89
2016-10-25T06:58:35.264Z,15.97
2016-10-25T06:59:35.132Z,15.89
2016-10-25T07:00:34.776Z,15.89
2016-10-25T07:01:35.019Z,15.88
2016-10-25T07:02:34.603Z,15.85
2016-10-25T07:03:34.701Z,15.81
2016-10-25T07:04:34.986Z,15.82
2016-10-25T07:05:34.648Z,15.85
2016-10-25T07:06:34.725Z,15.86
2016-10-25T07:07:34.890Z,15.88
2016-10-25T07:08:34.445Z,15.74
2016-10-25T07:09:34.711Z,15.75
2016-10-25T07:10:34.433Z,15.84
2016-10-25T07:11:34.755Z,15.85
2016-10-25T07:12:34.705Z,15.88
2016-10-25T07:13:34.990Z,15.84
2016-10-25T07:14:34.313Z,15.74
2016-10-25T07:15:35.114Z,15.82
2016-10-25T07:16:34.582Z,15.81
2016-10-25T07:17:34.187Z,15.82
2016-10-25T07:18:34.140Z,15.85
2016-10-25T07:19:34.139Z,15.81
2016-10-25T07:20:34.094Z,15.88
2016-10-25T07:21:34.108Z,15.85
2016-10-25T07:22:34.529Z,15.85
2016-10-25T07:23:34.022Z,15.88
2016-10-25T07:25:34.185Z,15.82
2016-10-25T07:27:34.039Z,15.84
2016-10-25T07:28:33.863Z,15.88
2016-10-25T07:29:34.276Z,15.86
2016-10-25T07:30:33.905Z,15.82
2016-10-25T07:31:33.763Z,15.82
2016-10-25T07:32:33.785Z,15.82
2016-10-25T07:33:33.774Z,15.88
2016-10-25T07:34:33.698Z,15.92
2016-10-25T07:35:33.705Z,15.88
2016-10-25T07:36:48.857Z,15.79
2016-10-25T07:37:33.600Z,15.85
2016-10-25T07:38:33.977Z,15.88
2016-10-25T07:39:33.540Z,15.86
2016-10-25T07:40:33.522Z,15.84
2016-10-25T07:41:33.545Z,16
2016-10-25T07:42:33.568Z,15.93
2016-10-25T07:43:33.481Z,15.82
2016-10-25T07:44:48.146Z,15.89
2016-10-25T07:45:33.388Z,15.89
2016-10-25T07:46:33.727Z,15.85
2016-10-25T07:47:33.369Z,15.89
2016-10-25T07:48:33.310Z,15.89
2016-10-25T07:49:33.613Z,15.85
2016-10-25T07:50:33.321Z,15.89
2016-10-25T07:51:33.301Z,15.81
2016-10-25T07:52:33.638Z,15.76
2016-10-25T07:53:33.152Z,15.85
2016-10-25T07:54:33.301Z,15.82
2016-10-25T07:55:33.525Z,15.92
2016-10-25T07:56:34.266Z,15.85
2016-10-25T07:57:33.044Z,15.85
2016-10-25T07:58:33.005Z,15.86
2016-10-25T07:59:32.991Z,15.84
2016-10-25T08:00:33.753Z,15.79
2016-10-25T08:01:33.802Z,15.78
2016-10-25T08:03:32.870Z,15.68
2016-10-25T08:04:32.868Z,15.67
2016-10-25T08:05:33.476Z,15.74
2016-10-25T08:06:32.791Z,15.72
2016-10-25T08:07:32.815Z,15.72
2016-10-25T08:08:47.848Z,15.68
2016-10-25T08:09:32.738Z,15.75
2016-10-25T08:10:33.015Z,15.7
2016-10-25T08:11:32.651Z,15.72
2016-10-25T08:12:32.615Z,15.79
2016-10-25T08:13:32.766Z,15.7
2016-10-25T08:14:32.585Z,15.64
2016-10-25T08:15:32.532Z,15.75
2016-10-25T08:16:32.511Z,15.79
2016-10-25T08:17:32.519Z,15.74
2016-10-25T08:18:32.465Z,15.67
2016-10-25T08:20:32.376Z,15.66
2016-10-25T08:22:33.060Z,15.72
2016-10-25T08:23:32.727Z,15.67
2016-10-25T08:24:32.268Z,15.66
2016-10-25T08:25:32.644Z,15.66
2016-10-25T08:27:32.545Z,15.72
2016-10-25T08:28:32.157Z,15.63
2016-10-25T08:29:32.568Z,15.63
2016-10-25T08:30:32.614Z,15.63
2016-10-25T08:32:32.518Z,15.64
2016-10-25T08:33:32.236Z,15.61
2016-10-25T08:34:32.495Z,15.7
2016-10-25T08:35:32.022Z,15.63
2016-10-25T08:36:31.997Z,15.59
2016-10-25T08:37:32.024Z,15.66
2016-10-25T08:39:32.251Z,15.56
2016-10-25T08:40:32.268Z,15.6
2016-10-25T08:41:31.809Z,15.56
2016-10-25T08:42:31.745Z,15.59
2016-10-25T08:43:31.725Z,15.45
2016-10-25T08:44:32.075Z,15.39
2016-10-25T08:45:31.671Z,15.21
2016-10-25T08:46:46.763Z,15.26
2016-10-25T08:47:31.606Z,15.26
2016-10-25T08:48:31.585Z,15.31
2016-10-25T08:49:31.532Z,15.41
2016-10-25T08:50:31.574Z,15.41
2016-10-25T08:51:31.857Z,15.41
2016-10-25T08:52:46.232Z,15.35
2016-10-25T08:53:31.941Z,15.43
2016-10-25T08:54:31.770Z,15.41
2016-10-25T08:55:31.409Z,15.43
2016-10-25T08:56:31.375Z,15.49
2016-10-25T08:57:32.288Z,15.43
2016-10-25T08:58:31.635Z,15.52
2016-10-25T08:59:45.999Z,15.42
2016-10-25T09:00:45.973Z,15.35
2016-10-25T09:01:32.169Z,15.33
2016-10-25T09:02:31.189Z,15.27
2016-10-25T09:03:31.641Z,15.26
2016-10-25T09:05:31.886Z,15.23
2016-10-25T09:06:31.434Z,15.12
2016-10-25T09:07:31.486Z,15.19
2016-10-25T09:08:31.541Z,15.3
2016-10-25T09:09:30.981Z,15.24
2016-10-25T09:11:31.379Z,15.27
2016-10-25T09:12:30.934Z,15.28
2016-10-25T09:13:31.238Z,15.27
2016-10-25T09:14:31.224Z,15.27
2016-10-25T09:15:30.807Z,15.21
2016-10-25T09:16:30.828Z,15.17
2016-10-25T09:17:30.760Z,15.2
2016-10-25T09:18:30.799Z,14.99
2016-10-25T09:19:30.705Z,15.05
2016-10-25T09:20:30.714Z,15.17
2016-10-25T09:21:45.665Z,15.24
2016-10-25T09:22:30.659Z,15.26
2016-10-25T09:23:31.041Z,15.27
2016-10-25T09:24:31.010Z,15.27
2016-10-25T09:25:30.554Z,15.21
2016-10-25T09:26:30.498Z,15.26
2016-10-25T09:27:30.477Z,15.27
2016-10-25T09:28:30.432Z,15.33
2016-10-25T09:29:30.652Z,15.39
2016-10-25T09:31:30.328Z,15.39
2016-10-25T09:32:30.325Z,15.43
2016-10-25T09:33:30.267Z,15.43
2016-10-25T09:34:30.255Z,15.43
2016-10-25T09:36:51.938Z,15.46
2016-10-25T09:37:50.312Z,15.46
2016-10-25T09:38:31.068Z,15.42
2016-10-25T09:40:30.103Z,15.51
2016-10-25T09:41:30.410Z,15.3
2016-10-25T09:42:30.297Z,15.24
2016-10-25T09:43:30.007Z,15.27
2016-10-25T09:44:30.001Z,15.33
2016-10-25T09:45:29.995Z,15.36
2016-10-25T09:46:59.365Z,15.43
2016-10-25T09:47:29.949Z,15.42
2016-10-25T09:48:29.940Z,15.45
2016-10-25T09:49:29.831Z,15.46
2016-10-25T09:50:30.572Z,15.6
2016-10-25T09:51:30.809Z,15.52
2016-10-25T09:52:29.757Z,15.54
2016-10-25T09:53:29.778Z,15.54
2016-10-25T09:54:30.695Z,15.39
2016-10-25T09:55:30.712Z,15.45
2016-10-25T09:56:30.027Z,15.49
2016-10-25T09:57:30.599Z,15.57
2016-10-25T09:58:29.576Z,15.54
2016-10-25T09:59:29.894Z,15.56
2016-10-25T10:00:29.729Z,15.46
2016-10-25T10:01:30.281Z,15.48
2016-10-25T10:02:29.470Z,15.51
2016-10-25T10:03:29.789Z,15.54
2016-10-25T10:04:29.502Z,15.56
2016-10-25T10:05:29.749Z,15.59
2016-10-25T10:06:29.393Z,15.59
2016-10-25T10:07:29.682Z,15.52
2016-10-25T10:08:29.314Z,15.51
2016-10-25T10:09:29.360Z,15.59
2016-10-25T10:10:29.380Z,15.61
2016-10-25T10:11:29.198Z,15.63
2016-10-25T10:12:29.181Z,15.59
2016-10-25T10:13:29.145Z,15.61
2016-10-25T10:14:29.926Z,15.6
2016-10-25T10:15:29.443Z,15.61
2016-10-25T10:16:29.084Z,15.64
2016-10-25T10:17:29.772Z,15.57
2016-10-25T10:18:28.987Z,15.64
2016-10-25T10:19:28.953Z,15.59
2016-10-25T10:20:28.932Z,15.49
2016-10-25T10:21:28.908Z,15.6
2016-10-25T10:22:28.974Z,15.59
2016-10-25T10:23:28.859Z,15.66
2016-10-25T10:24:28.799Z,15.6
2016-10-25T10:25:43.866Z,15.6
2016-10-25T10:26:29.122Z,15.6
2016-10-25T10:27:28.749Z,15.7
2016-10-25T10:28:28.744Z,15.66
2016-10-25T10:29:29.987Z,15.72
2016-10-25T10:30:43.368Z,15.68
2016-10-25T10:31:28.638Z,15.66
2016-10-25T10:32:28.625Z,15.63
2016-10-25T10:33:28.588Z,15.57
2016-10-25T10:34:28.899Z,15.57
2016-10-25T10:35:30.224Z,15.6
2016-10-25T10:36:28.835Z,15.57
2016-10-25T10:38:28.435Z,15.63
2016-10-25T10:39:43.420Z,15.59
2016-10-25T10:40:28.764Z,15.68
2016-10-25T10:41:43.440Z,15.76
2016-10-25T10:42:29.019Z,15.68
2016-10-25T10:43:28.261Z,15.72
2016-10-25T10:44:28.653Z,15.72
2016-10-25T10:45:29.109Z,15.76
2016-10-25T10:46:28.390Z,15.75
2016-10-25T10:47:28.182Z,15.74
2016-10-25T10:48:28.609Z,15.72
2016-10-25T10:49:28.125Z,15.7
2016-10-25T10:50:28.538Z,15.68
2016-10-25T10:51:28.412Z,15.61
2016-10-25T10:52:28.523Z,15.7
2016-10-25T10:53:28.034Z,15.72
2016-10-25T10:54:27.965Z,15.76
2016-10-25T10:55:27.982Z,15.84
2016-10-25T10:56:27.919Z,15.75
2016-10-25T10:57:27.862Z,15.75
2016-10-25T10:58:27.870Z,15.72
2016-10-25T10:59:27.824Z,15.75
2016-10-25T11:00:27.797Z,15.74
2016-10-25T11:01:43.012Z,15.81
2016-10-25T11:02:28.132Z,15.72
2016-10-25T11:04:28.147Z,15.78
2016-10-25T11:05:28.433Z,15.82
2016-10-25T11:06:27.882Z,15.84
2016-10-25T11:07:28.181Z,15.74
2016-10-25T11:09:27.869Z,15.7
2016-10-25T11:10:27.511Z,15.74
2016-10-25T11:11:27.467Z,15.75
2016-10-25T11:12:27.437Z,15.82
2016-10-25T11:13:27.467Z,15.88
2016-10-25T11:14:28.027Z,15.86
2016-10-25T11:15:27.422Z,15.89
2016-10-25T11:16:27.598Z,15.89
2016-10-25T11:17:27.705Z,15.85
2016-10-25T11:18:27.302Z,15.89
2016-10-25T11:19:27.596Z,15.78
2016-10-25T11:20:27.406Z,15.99
2016-10-25T11:21:27.558Z,15.97
2016-10-25T11:22:27.164Z,15.96
2016-10-25T11:24:27.876Z,15.97
2016-10-25T11:26:27.271Z,16.01
2016-10-25T11:27:27.406Z,15.94
2016-10-25T11:28:27.040Z,15.99
2016-10-25T11:29:26.957Z,15.99
2016-10-25T11:30:27.144Z,15.97
2016-10-25T11:31:27.306Z,16.06
2016-10-25T11:32:27.344Z,16.12
2016-10-25T11:33:26.832Z,16.09
2016-10-25T11:34:26.952Z,16.07
2016-10-25T11:35:27.666Z,16.14
2016-10-25T11:36:26.755Z,16.07
2016-10-25T11:37:26.715Z,16.15
2016-10-25T11:38:26.711Z,16.06
2016-10-25T11:39:27.035Z,16.07
2016-10-25T11:40:26.628Z,16.2
2016-10-25T11:41:26.980Z,16.11
2016-10-25T11:42:41.323Z,16.22
2016-10-25T11:43:26.555Z,16.25
2016-10-25T11:44:26.606Z,16.27
2016-10-25T11:45:27.693Z,16.27
2016-10-25T11:46:27.017Z,16.26
2016-10-25T11:47:41.806Z,16.22
2016-10-25T11:48:26.437Z,16.34
2016-10-25T11:49:41.132Z,16.37
2016-10-25T11:50:26.731Z,16.4
2016-10-25T11:51:26.727Z,16.42
2016-10-25T11:52:26.344Z,16.38
2016-10-25T11:53:26.667Z,16.34
2016-10-25T11:54:26.314Z,16.34
2016-10-25T11:55:27.324Z,16.33
2016-10-25T11:56:26.306Z,16.31
2016-10-25T11:57:26.256Z,16.33
2016-10-25T11:58:26.188Z,16.25
2016-10-25T11:59:26.513Z,16.12
2016-10-25T12:00:26.457Z,16.18
2016-10-25T12:01:26.535Z,16.25
2016-10-25T12:04:18.955Z,16.27
2016-10-25T12:04:49.444Z,16.27
2016-10-25T12:06:04.348Z,16.25
2016-10-25T12:06:49.143Z,16.25
2016-10-25T12:07:49.031Z,16.23
2016-10-25T12:08:49.085Z,16.3
2016-10-25T12:09:49.428Z,16.31
2016-10-25T12:10:48.939Z,16.3
2016-10-25T12:11:48.977Z,16.2
2016-10-25T12:12:49.249Z,16.25
2016-10-25T12:13:49.267Z,16.23
2016-10-25T12:14:48.860Z,16.18
2016-10-25T12:15:49.732Z,16.2
2016-10-25T12:16:48.803Z,16.22
2016-10-25T12:17:48.777Z,16.07
2016-10-25T12:18:48.746Z,16.18
2016-10-25T12:19:48.747Z,16.06
2016-10-25T12:20:48.726Z,16.07
2016-10-25T12:21:49.245Z,16.07
2016-10-25T12:22:48.678Z,16.26
2016-10-25T12:23:48.596Z,16.26
2016-10-25T12:24:48.715Z,16.34
2016-10-25T12:25:49.050Z,16.25
2016-10-25T12:26:48.510Z,16.26
2016-10-25T12:27:48.510Z,16.2
2016-10-25T12:28:48.828Z,16.2
2016-10-25T12:29:48.403Z,16.18
2016-10-25T12:30:48.762Z,16.22
2016-10-25T12:32:48.680Z,16.18
2016-10-25T12:33:48.943Z,16.26
2016-10-25T12:34:48.306Z,16.23
2016-10-25T12:35:48.225Z,16.23
2016-10-25T12:36:48.259Z,16.34
2016-10-25T12:38:03.059Z,16.27
2016-10-25T12:38:48.170Z,16.37
2016-10-25T12:39:48.135Z,16.37
2016-10-25T12:40:48.160Z,16.31
2016-10-25T12:41:49.348Z,16.41
2016-10-25T12:42:48.088Z,16.37
2016-10-25T12:43:51.166Z,16.38
2016-10-25T12:44:48.003Z,16.34
2016-10-25T12:49:03.693Z,16.34
2016-10-25T12:49:34.668Z,16.25
2016-10-25T12:50:34.295Z,16.26
2016-10-25T12:51:34.638Z,16.3
2016-10-25T12:52:34.393Z,16.34
2016-10-25T12:53:34.211Z,16.3
2016-10-25T12:54:34.195Z,16.11
2016-10-25T12:55:34.119Z,16.18
2016-10-25T12:56:48.891Z,16.18
2016-10-25T12:57:34.464Z,16.16
2016-10-25T12:58:48.717Z,16.26
2016-10-25T12:59:34.023Z,16.23
2016-10-25T13:00:48.764Z,16.22
2016-10-25T13:01:34.016Z,16.11
2016-10-25T13:02:49.051Z,16.2
2016-10-25T13:03:33.892Z,16.14
2016-10-25T13:04:33.852Z,16.22
2016-10-25T13:05:34.653Z,16.25
2016-10-25T13:06:33.868Z,16.18
2016-10-25T13:07:33.810Z,16.16
2016-10-25T13:08:34.120Z,16.26
2016-10-25T13:12:34.601Z,16.22
2016-10-25T13:13:34.561Z,16.15
2016-10-25T13:14:20.174Z,16.22
2016-10-25T13:15:20.538Z,16.26
2016-10-25T13:16:20.157Z,16.23
2016-10-25T13:18:57.969Z,16.22
2016-10-25T13:19:42.970Z,16.2
2016-10-25T13:20:43.018Z,16.16
2016-10-25T13:21:42.801Z,16.23
2016-10-25T13:22:42.982Z,16.27
2016-10-25T13:23:57.488Z,16.26
2016-10-25T13:24:43.223Z,16.3
2016-10-25T13:25:43.103Z,16.3
2016-10-25T13:27:43.150Z,16.3
2016-10-25T13:28:42.849Z,16.23
2016-10-25T13:29:42.737Z,16.22
2016-10-25T13:30:42.909Z,16.27
2016-10-25T13:31:43.399Z,16.26